Melissa RD121's Hourly Summary for Wednesday, May 16, 2018
Hour Temp
(f)
RH
(%)
Solar Rad.
(MJ/m2)
Rainfall
(in)
Wind
(mph)
5/16/2018 12:00 AM 65 85 0 0 0.42
5/16/2018 1:00 AM 65 88 0 0 0.58
5/16/2018 2:00 AM 64 90 0 0 0.42
5/16/2018 3:00 AM 65 88 0 0 1.46
5/16/2018 4:00 AM 64 89 0 0 0.68
5/16/2018 5:00 AM 64 87 0 0 2.87
5/16/2018 6:00 AM 65 81 0.04 0 0.36
5/16/2018 7:00 AM 68 77 0.36 0 0
5/16/2018 8:00 AM 71 63 1.14 0 1.38
5/16/2018 9:00 AM 75 57 1.85 0 0.51
5/16/2018 10:00 AM 78 55 2.4 0 2.38
5/16/2018 11:00 AM 79 54 1.76 0 2.64
5/16/2018 12:00 PM 82 50 2.98 0 2.35
5/16/2018 1:00 PM 84 45 2.99 0 4.75
5/16/2018 2:00 PM 85 44 2.88 0 4.59
5/16/2018 3:00 PM 85 43 2.63 0 5.91
5/16/2018 4:00 PM 85 43 2 0 6.82
5/16/2018 5:00 PM 84 44 1.53 0 5.94
5/16/2018 6:00 PM 83 47 0.96 0 5.08
5/16/2018 7:00 PM 80 49 0.33 0 6.01
5/16/2018 8:00 PM 76 63 0.01 0 1.55
5/16/2018 9:00 PM 73 68 0 0 0.45
5/16/2018 10:00 PM 72 72 0 0 0.06
5/16/2018 11:00 PM 70 76 0 0 0.13
Data Summary 74 64 23.86 0.00 2.39